Time;durP1;ratioP1;P1;durP2;ratioP2;P2;SDS_P1;SDS_P2;PMS_P1;PMS_P2;Temp;Humidity;BMP_temperature;BMP_pressure;BME280_temperature;BME280_humidity;BME280_pressure;Samples;Min_cycle;Max_cycle;Signal;HPM_P1;HPM_P2
2021/06/26 00:01:09;;;;;;;3.67;3.30;;;18.80;70.80;;;;;;5077691;28;20044;-72
2021/06/26 00:03:35;;;;;;;4.00;3.50;;;18.80;70.80;;;;;;5077606;28;20110;-74
2021/06/26 00:06:01;;;;;;;3.80;3.28;;;18.80;70.90;;;;;;5077695;28;20134;-74
2021/06/26 00:08:28;;;;;;;3.65;3.35;;;18.90;70.80;;;;;;5078419;28;20093;-73
2021/06/26 00:10:55;;;;;;;4.07;3.67;;;18.80;70.80;;;;;;5077572;28;20458;-74
2021/06/26 00:13:21;;;;;;;4.13;3.40;;;18.80;70.80;;;;;;5077720;28;20045;-73
2021/06/26 00:15:48;;;;;;;3.60;3.30;;;18.80;70.70;;;;;;5078089;28;20098;-72
2021/06/26 00:18:15;;;;;;;4.22;3.55;;;18.80;71.40;;;;;;5077697;28;20052;-74
2021/06/26 00:20:42;;;;;;;3.88;3.58;;;18.80;70.80;;;;;;5077559;28;20122;-75
2021/06/26 00:23:09;;;;;;;3.40;3.10;;;18.80;70.80;;;;;;5077455;28;20119;-73
2021/06/26 00:25:35;;;;;;;4.13;3.55;;;18.80;70.80;;;;;;5077275;28;20113;-74
2021/06/26 00:28:01;;;;;;;4.13;3.72;;;18.80;70.80;;;;;;5077392;28;20056;-74
2021/06/26 00:30:27;;;;;;;3.17;2.88;;;18.90;70.90;;;;;;5077303;28;20356;-75
2021/06/26 00:32:54;;;;;;;3.67;3.38;;;18.80;70.90;;;;;;5077222;28;20048;-73
2021/06/26 00:35:20;;;;;;;4.63;3.30;;;18.80;70.90;;;;;;5077052;28;20045;-73
2021/06/26 00:37:46;;;;;;;4.10;3.50;;;18.80;70.90;;;;;;5077340;28;20044;-74
2021/06/26 00:40:13;;;;;;;3.85;2.90;;;18.80;70.90;;;;;;5077056;28;20127;-74
2021/06/26 00:42:41;;;;;;;3.45;3.13;;;18.80;70.90;;;;;;5075969;28;20429;-72
2021/06/26 00:45:11;;;;;;;3.28;2.97;;;18.80;70.90;;;;;;5077018;28;20451;-74
2021/06/26 00:47:38;;;;;;;4.35;3.17;;;18.90;70.90;;;;;;5076688;28;20115;-76
2021/06/26 00:50:15;;;;;;;3.10;2.80;;;18.80;71.40;;;;;;5076815;28;20101;-73
2021/06/26 00:52:41;;;;;;;3.17;2.88;;;18.80;70.80;;;;;;5076779;28;20090;-74
2021/06/26 00:55:08;;;;;;;3.25;2.95;;;18.80;70.90;;;;;;5076647;28;20113;-73
2021/06/26 00:57:35;;;;;;;3.17;2.72;;;18.80;70.90;;;;;;5077000;28;20491;-74
2021/06/26 01:00:04;;;;;;;4.05;3.50;;;18.80;70.90;;;;;;5076614;28;20058;-73
2021/06/26 01:02:29;;;;;;;3.25;2.60;;;18.80;70.90;;;;;;5076679;28;20127;-74
2021/06/26 01:04:57;;;;;;;3.80;2.75;;;18.80;70.90;;;;;;5076536;28;20045;-74
2021/06/26 01:07:22;;;;;;;3.00;2.70;;;18.80;70.90;;;;;;5076729;28;20497;-73
2021/06/26 01:09:48;;;;;;;3.10;2.80;;;18.80;70.90;;;;;;5076367;28;20348;-73
2021/06/26 01:12:14;;;;;;;3.35;3.03;;;18.80;70.90;;;;;;5076021;28;20121;-73
2021/06/26 01:14:40;;;;;;;3.08;2.78;;;18.80;70.90;;;;;;5076319;28;20072;-73
2021/06/26 01:17:09;;;;;;;3.55;2.85;;;18.80;70.80;;;;;;5076067;28;20049;-72
2021/06/26 01:19:36;;;;;;;3.67;2.90;;;18.80;70.90;;;;;;5076403;28;20127;-73
2021/06/26 01:22:07;;;;;;;3.22;2.85;;;18.80;70.90;;;;;;5076503;28;20049;-73
2021/06/26 01:24:34;;;;;;;2.95;2.65;;;18.80;70.90;;;;;;5075912;28;20044;-73
2021/06/26 01:27:01;;;;;;;2.65;2.40;;;18.80;70.90;;;;;;5076264;28;20119;-74
2021/06/26 01:29:27;;;;;;;3.72;3.10;;;18.80;70.90;;;;;;5076722;28;20485;-74
2021/06/26 01:31:53;;;;;;;2.30;2.10;;;18.80;70.90;;;;;;5076658;28;20447;-75
2021/06/26 01:34:19;;;;;;;3.25;2.60;;;18.80;70.90;;;;;;5075879;28;20040;-74
2021/06/26 01:36:45;;;;;;;2.75;2.42;;;18.80;70.90;;;;;;5075624;28;20048;-73
2021/06/26 01:39:11;;;;;;;3.33;2.65;;;18.80;70.90;;;;;;5076206;28;20040;-76
2021/06/26 01:41:37;;;;;;;2.80;2.47;;;18.80;70.90;;;;;;5075612;28;20040;-74
2021/06/26 01:44:03;;;;;;;3.35;2.92;;;18.80;70.90;;;;;;5075629;28;20450;-74
2021/06/26 01:46:29;;;;;;;2.50;2.30;;;18.80;70.90;;;;;;5075875;28;20504;-74
2021/06/26 01:49:12;;;;;;;3.20;2.63;;;18.80;70.80;;;;;;5075605;28;20044;-74
2021/06/26 01:51:38;;;;;;;3.03;2.73;;;18.80;70.80;;;;;;5076179;28;20036;-73
2021/06/26 01:54:08;;;;;;;3.28;2.67;;;18.80;70.90;;;;;;5075682;28;20283;-75
2021/06/26 01:56:36;;;;;;;2.85;2.55;;;18.80;70.90;;;;;;5075707;28;20064;-76
2021/06/26 01:59:02;;;;;;;2.40;2.20;;;18.80;70.90;;;;;;5075515;28;20119;-73
2021/06/26 02:01:28;;;;;;;2.95;2.65;;;18.80;70.90;;;;;;5075322;28;20427;-74
2021/06/26 02:03:54;;;;;;;2.85;2.60;;;18.80;71.00;;;;;;5075238;28;20086;-73
2021/06/26 02:06:20;;;;;;;3.00;2.67;;;18.80;70.90;;;;;;5075434;28;20398;-73
2021/06/26 02:08:46;;;;;;;2.92;2.30;;;18.80;70.90;;;;;;5076118;28;20047;-74
2021/06/26 02:11:12;;;;;;;2.75;2.40;;;18.80;70.90;;;;;;5075639;28;20048;-74
2021/06/26 02:13:38;;;;;;;2.55;2.35;;;18.80;70.90;;;;;;5075527;28;20340;-73
2021/06/26 02:16:04;;;;;;;2.58;2.38;;;18.80;70.90;;;;;;5075543;28;20044;-74
2021/06/26 02:18:30;;;;;;;2.60;2.17;;;18.80;70.90;;;;;;5075408;28;20402;-73
2021/06/26 02:20:56;;;;;;;2.80;2.50;;;18.80;70.90;;;;;;5075592;28;20127;-75
2021/06/26 02:23:22;;;;;;;2.85;2.58;;;18.80;70.90;;;;;;5075487;28;20171;-75
2021/06/26 02:25:48;;;;;;;3.63;3.05;;;18.80;70.80;;;;;;5075129;28;20356;-73
2021/06/26 02:28:14;;;;;;;3.28;2.67;;;18.80;70.90;;;;;;5075486;28;20068;-73
2021/06/26 02:30:40;;;;;;;3.10;2.80;;;18.80;70.90;;;;;;5075332;28;20049;-74
2021/06/26 02:33:06;;;;;;;2.83;2.33;;;18.80;70.90;;;;;;5074902;28;20056;-74
2021/06/26 02:35:31;;;;;;;3.03;2.72;;;18.80;70.90;;;;;;5075291;28;20116;-74
2021/06/26 02:37:57;;;;;;;3.22;2.90;;;18.80;70.90;;;;;;5074862;28;20052;-74
2021/06/26 02:40:23;;;;;;;3.17;2.50;;;18.80;70.90;;;;;;5075276;28;20044;-74
2021/06/26 02:42:49;;;;;;;3.38;2.80;;;18.80;70.90;;;;;;5074850;28;20043;-73
2021/06/26 02:45:15;;;;;;;3.78;3.00;;;18.80;70.90;;;;;;5075692;28;20061;-74
2021/06/26 02:47:41;;;;;;;2.83;2.58;;;18.80;70.90;;;;;;5075357;28;20473;-75
2021/06/26 02:50:09;;;;;;;3.78;2.70;;;18.80;70.90;;;;;;5074934;28;20359;-74
2021/06/26 02:52:35;;;;;;;3.63;3.08;;;18.80;70.90;;;;;;5075274;28;20072;-72
2021/06/26 02:55:02;;;;;;;3.17;2.80;;;18.80;70.90;;;;;;5075007;28;20422;-73
2021/06/26 02:57:27;;;;;;;2.92;2.60;;;18.80;70.90;;;;;;5075113;28;20182;-73
2021/06/26 02:59:53;;;;;;;3.65;2.80;;;18.80;70.90;;;;;;5075078;28;20139;-75
2021/06/26 03:02:19;;;;;;;3.80;2.97;;;18.80;70.90;;;;;;5074527;28;20044;-73
2021/06/26 03:04:45;;;;;;;3.10;2.80;;;18.80;71.00;;;;;;5075927;28;20049;-73
2021/06/26 03:07:11;;;;;;;3.25;2.95;;;18.80;71.00;;;;;;5078869;28;20113;-73
2021/06/26 03:09:38;;;;;;;3.53;3.13;;;18.80;71.00;;;;;;5078616;28;20044;-72
2021/06/26 03:12:04;;;;;;;4.10;3.63;;;18.80;71.00;;;;;;5079053;28;20067;-75
2021/06/26 03:14:30;;;;;;;4.35;3.50;;;18.80;71.00;;;;;;5078904;28;20348;-72
2021/06/26 03:16:56;;;;;;;4.03;3.20;;;18.80;71.00;;;;;;5078837;28;20126;-72
2021/06/26 03:19:22;;;;;;;3.90;3.35;;;18.80;71.10;;;;;;5078710;28;20048;-75
2021/06/26 03:21:49;;;;;;;3.75;3.25;;;18.70;71.00;;;;;;5078628;28;20355;-73
2021/06/26 03:24:15;;;;;;;4.10;3.70;;;18.80;71.10;;;;;;5078139;28;20040;-72
2021/06/26 03:26:45;;;;;;;3.67;3.35;;;18.80;71.10;;;;;;5078666;28;20044;-74
2021/06/26 03:29:11;;;;;;;3.50;3.20;;;18.80;71.10;;;;;;5078652;28;20045;-73
2021/06/26 03:31:37;;;;;;;5.10;3.85;;;18.80;71.10;;;;;;5078107;28;20049;-72
2021/06/26 03:34:03;;;;;;;5.95;4.07;;;18.80;71.10;;;;;;5077821;28;20063;-73
2021/06/26 03:36:29;;;;;;;4.00;3.60;;;18.80;71.10;;;;;;5078243;28;20043;-73
2021/06/26 03:38:55;;;;;;;4.00;3.60;;;18.80;71.10;;;;;;5078110;28;20078;-73
2021/06/26 03:41:25;;;;;;;5.15;4.05;;;18.80;71.10;;;;;;5078180;28;20412;-73
2021/06/26 03:43:52;;;;;;;4.13;3.72;;;18.80;71.10;;;;;;5078035;28;20064;-73
2021/06/26 03:46:18;;;;;;;5.00;4.50;;;18.80;71.10;;;;;;5078425;28;20105;-73
2021/06/26 03:48:44;;;;;;;4.25;3.85;;;18.80;71.10;;;;;;5078258;28;20356;-75
2021/06/26 03:51:09;;;;;;;4.63;3.95;;;18.80;71.00;;;;;;5078053;28;20045;-74
2021/06/26 03:53:36;;;;;;;4.55;4.13;;;18.80;71.10;;;;;;5077644;28;20359;-74
2021/06/26 03:56:01;;;;;;;4.60;4.10;;;18.80;71.00;;;;;;5078215;28;20198;-73
2021/06/26 03:58:28;;;;;;;4.32;3.92;;;18.80;71.00;;;;;;5094338;28;20094;-72
2021/06/26 04:00:57;;;;;;;4.72;3.85;;;18.80;71.10;;;;;;5077671;28;20044;-73
2021/06/26 04:03:23;;;;;;;4.80;4.20;;;18.80;71.10;;;;;;5077886;28;20497;-73
2021/06/26 04:05:51;;;;;;;4.88;3.95;;;18.80;71.10;;;;;;5078413;28;20063;-73
2021/06/26 04:08:17;;;;;;;5.05;4.55;;;18.80;71.70;;;;;;5077922;28;20048;-74
2021/06/26 04:11:03;;;;;;;5.05;4.55;;;18.80;71.10;;;;;;5077573;28;20094;-73
2021/06/26 04:13:29;;;;;;;5.57;4.90;;;18.70;71.00;;;;;;5077839;28;20048;-73
2021/06/26 04:15:56;;;;;;;5.13;4.60;;;18.80;71.10;;;;;;5077599;28;20053;-73
2021/06/26 04:18:21;;;;;;;4.75;4.25;;;18.70;71.10;;;;;;5077603;28;20402;-73
2021/06/26 04:20:47;;;;;;;5.28;4.65;;;18.80;71.10;;;;;;5077805;28;20090;-73
2021/06/26 04:23:13;;;;;;;4.68;4.20;;;18.80;71.10;;;;;;5077392;28;20072;-75
2021/06/26 04:25:39;;;;;;;5.43;4.55;;;18.70;71.00;;;;;;5077272;28;20447;-72
2021/06/26 04:28:07;;;;;;;5.63;4.70;;;18.80;71.10;;;;;;5093285;28;20048;-73
2021/06/26 04:30:33;;;;;;;6.05;4.68;;;18.80;71.10;;;;;;5077143;28;20040;-73
2021/06/26 04:33:00;;;;;;;5.28;4.78;;;18.70;71.70;;;;;;5077185;28;20060;-73
2021/06/26 04:35:26;;;;;;;5.32;4.82;;;18.80;71.10;;;;;;5077508;28;20110;-73
2021/06/26 04:37:52;;;;;;;5.80;5.20;;;18.80;71.10;;;;;;5077502;28;20048;-74
2021/06/26 04:40:18;;;;;;;5.22;4.57;;;18.80;71.10;;;;;;5077933;28;20497;-72
2021/06/26 04:42:45;;;;;;;5.45;4.95;;;18.80;71.10;;;;;;5076766;28;20041;-73
2021/06/26 04:45:12;;;;;;;5.90;5.30;;;18.80;71.10;;;;;;5076531;28;20379;-74
2021/06/26 04:47:40;;;;;;;5.30;4.80;;;18.80;71.10;;;;;;5076079;28;20072;-73
2021/06/26 04:50:07;;;;;;;5.80;4.90;;;18.80;71.10;;;;;;5076762;28;20036;-74
2021/06/26 04:52:34;;;;;;;5.50;5.00;;;18.70;71.10;;;;;;5076810;28;20048;-73
2021/06/26 04:55:01;;;;;;;5.80;5.20;;;18.70;71.10;;;;;;5076178;28;20076;-74
2021/06/26 04:57:28;;;;;;;6.20;5.30;;;18.80;71.10;;;;;;5076712;28;20049;-72
2021/06/26 04:59:54;;;;;;;6.20;5.60;;;18.80;71.10;;;;;;5077013;28;20052;-74
2021/06/26 05:02:20;;;;;;;6.75;5.80;;;18.80;71.20;;;;;;5076603;28;20508;-74
2021/06/26 05:04:45;;;;;;;6.18;5.57;;;18.80;71.10;;;;;;5076841;28;20098;-72
2021/06/26 05:07:11;;;;;;;6.30;5.53;;;18.80;71.20;;;;;;5076492;28;20032;-73
2021/06/26 05:09:37;;;;;;;7.13;5.72;;;18.80;71.20;;;;;;5076236;28;20424;-73
2021/06/26 05:12:04;;;;;;;6.18;5.57;;;18.80;71.20;;;;;;5076184;28;20047;-73
2021/06/26 05:14:29;;;;;;;7.32;6.57;;;18.80;71.20;;;;;;5075917;28;20361;-73
2021/06/26 05:16:55;;;;;;;6.35;5.53;;;18.80;71.20;;;;;;5076543;28;20049;-73
2021/06/26 05:19:21;;;;;;;8.07;6.70;;;18.80;71.20;;;;;;5076650;28;20049;-73
2021/06/26 05:21:47;;;;;;;7.40;5.85;;;18.80;71.20;;;;;;5076460;28;20043;-73
2021/06/26 05:24:13;;;;;;;7.68;6.32;;;18.80;71.20;;;;;;5075888;28;20127;-73
2021/06/26 05:26:39;;;;;;;6.38;5.68;;;18.80;71.20;;;;;;5076048;28;20055;-72
2021/06/26 05:29:05;;;;;;;7.60;6.18;;;18.80;71.20;;;;;;5075818;28;20040;-74
2021/06/26 05:31:31;;;;;;;6.80;6.10;;;18.80;71.20;;;;;;5076270;28;20352;-73
2021/06/26 05:33:58;;;;;;;7.40;6.70;;;18.80;71.30;;;;;;5076224;28;20343;-75
2021/06/26 05:36:24;;;;;;;6.30;5.43;;;18.80;71.30;;;;;;5076156;28;20119;-73
2021/06/26 05:38:50;;;;;;;9.98;6.80;;;18.80;71.20;;;;;;5075721;28;20075;-73
2021/06/26 05:41:15;;;;;;;7.25;6.40;;;18.80;71.20;;;;;;5076267;28;20497;-74
2021/06/26 05:43:42;;;;;;;6.97;5.88;;;18.80;71.30;;;;;;5075816;28;20044;-72
2021/06/26 05:46:07;;;;;;;8.60;7.70;;;18.80;71.90;;;;;;5075924;28;20352;-74
2021/06/26 05:48:34;;;;;;;6.45;5.85;;;18.80;71.40;;;;;;5076096;28;20048;-74
2021/06/26 05:51:00;;;;;;;7.70;6.07;;;18.80;71.40;;;;;;5075843;28;20044;-72
2021/06/26 05:53:26;;;;;;;7.65;6.85;;;18.90;71.40;;;;;;5075938;28;20045;-72
2021/06/26 05:56:01;;;;;;;7.50;6.70;;;18.80;71.40;;;;;;5075619;28;20049;-73
2021/06/26 05:58:37;;;;;;;7.78;6.78;;;18.80;71.40;;;;;;5075779;28;20044;-73
2021/06/26 06:01:07;;;;;;;7.82;6.75;;;18.80;71.40;;;;;;5075858;28;20197;-75
2021/06/26 06:03:33;;;;;;;7.07;6.38;;;18.80;71.40;;;;;;5075306;28;20063;-75
2021/06/26 06:05:59;;;;;;;7.65;6.90;;;18.80;71.40;;;;;;5075640;28;20116;-73
2021/06/26 06:08:25;;;;;;;7.03;6.32;;;18.80;71.40;;;;;;5075432;28;20094;-74
2021/06/26 06:10:51;;;;;;;9.32;7.22;;;18.80;71.40;;;;;;5075330;28;20040;-73
2021/06/26 06:13:18;;;;;;;8.18;6.95;;;18.80;71.40;;;;;;5075397;28;20508;-74
2021/06/26 06:15:46;;;;;;;7.03;6.30;;;18.80;71.40;;;;;;5075321;28;20098;-74
2021/06/26 06:18:13;;;;;;;7.93;6.93;;;18.90;71.40;;;;;;5075491;28;20053;-75
2021/06/26 06:20:39;;;;;;;7.60;6.60;;;18.90;71.40;;;;;;5075191;28;20443;-73
2021/06/26 06:23:06;;;;;;;7.22;6.25;;;18.90;71.40;;;;;;5075062;28;20505;-73
2021/06/26 06:25:33;;;;;;;7.22;6.38;;;18.80;71.30;;;;;;5075274;28;20131;-74
2021/06/26 06:28:01;;;;;;;7.95;6.57;;;18.90;71.30;;;;;;5075737;28;20099;-73
2021/06/26 06:30:27;;;;;;;8.23;7.07;;;18.90;71.30;;;;;;5075458;28;20128;-74
2021/06/26 06:32:53;;;;;;;8.48;7.05;;;18.90;71.30;;;;;;5075167;28;20121;-73
2021/06/26 06:35:19;;;;;;;8.52;6.80;;;18.90;71.30;;;;;;5074984;28;20044;-74
2021/06/26 06:37:45;;;;;;;7.78;6.53;;;18.90;71.30;;;;;;5075229;28;20128;-73
2021/06/26 06:40:11;;;;;;;7.47;6.70;;;18.90;71.30;;;;;;5074277;28;20062;-74
2021/06/26 06:42:38;;;;;;;8.27;6.82;;;18.90;71.30;;;;;;5075144;28;20048;-74
2021/06/26 06:45:05;;;;;;;7.63;6.70;;;18.90;71.30;;;;;;5075229;28;20132;-74
2021/06/26 06:47:31;;;;;;;8.13;7.10;;;18.90;71.30;;;;;;5075681;28;20037;-74
2021/06/26 06:49:57;;;;;;;7.00;6.18;;;18.90;71.30;;;;;;5074884;28;20051;-72
2021/06/26 06:52:23;;;;;;;8.23;7.25;;;18.90;71.30;;;;;;5074702;28;20064;-73
2021/06/26 06:54:49;;;;;;;9.02;7.72;;;18.90;71.30;;;;;;5075345;28;20048;-73
2021/06/26 06:57:19;;;;;;;7.65;6.60;;;18.90;71.30;;;;;;5075238;28;20045;-73
2021/06/26 06:59:45;;;;;;;9.20;7.50;;;18.90;71.30;;;;;;5074932;28;20044;-74
2021/06/26 07:02:11;;;;;;;7.88;6.95;;;18.90;71.40;;;;;;5074946;28;20040;-72
2021/06/26 07:04:37;;;;;;;8.35;7.28;;;18.90;71.40;;;;;;5074729;28;20344;-73
2021/06/26 07:07:03;;;;;;;8.30;7.35;;;18.90;71.40;;;;;;5074655;28;20044;-72
2021/06/26 07:09:31;;;;;;;8.55;7.43;;;18.90;71.40;;;;;;5074648;28;20047;-74
2021/06/26 07:11:57;;;;;;;8.05;6.68;;;18.90;71.40;;;;;;5074891;28;20102;-72
2021/06/26 07:14:23;;;;;;;9.73;7.35;;;18.90;71.40;;;;;;5074695;28;20047;-74
2021/06/26 07:16:49;;;;;;;8.40;6.85;;;18.90;71.40;;;;;;5074705;28;20056;-73
2021/06/26 07:19:15;;;;;;;7.60;6.80;;;18.90;71.40;;;;;;5074449;28;20075;-72
2021/06/26 07:21:40;;;;;;;8.32;6.95;;;18.90;71.40;;;;;;5074529;28;20036;-73
2021/06/26 07:24:07;;;;;;;7.53;6.72;;;18.90;71.40;;;;;;5074689;28;20119;-72
2021/06/26 07:26:33;;;;;;;7.40;6.68;;;18.90;71.40;;;;;;5074803;28;20123;-73
2021/06/26 07:29:00;;;;;;;7.82;6.95;;;18.90;71.50;;;;;;5074540;28;20124;-73
2021/06/26 07:31:26;;;;;;;7.75;6.95;;;19.00;71.50;;;;;;5074427;28;20083;-74
2021/06/26 07:33:51;;;;;;;8.02;6.10;;;19.00;71.50;;;;;;5073383;28;20048;-74
2021/06/26 07:36:17;;;;;;;8.35;7.07;;;19.00;71.50;;;;;;5074536;28;20056;-74
2021/06/26 07:38:43;;;;;;;7.90;6.97;;;19.00;71.60;;;;;;5074760;28;20048;-72
2021/06/26 07:41:09;;;;;;;7.20;6.30;;;19.00;71.60;;;;;;5074373;28;20051;-74
2021/06/26 07:43:35;;;;;;;7.22;6.50;;;19.00;71.60;;;;;;5075169;28;20036;-73
2021/06/26 07:46:03;;;;;;;7.20;6.50;;;19.00;71.60;;;;;;5074490;28;20036;-72
2021/06/26 07:48:29;;;;;;;7.60;6.75;;;19.00;71.70;;;;;;5074231;28;20043;-73
2021/06/26 07:50:56;;;;;;;7.35;6.65;;;19.00;71.70;;;;;;5075686;28;20028;-74
2021/06/26 07:53:22;;;;;;;7.22;6.13;;;19.00;71.70;;;;;;5078288;28;20087;-72
2021/06/26 07:55:52;;;;;;;7.38;6.60;;;19.00;71.80;;;;;;5077864;28;20075;-72
2021/06/26 07:58:27;;;;;;;8.15;6.35;;;19.00;71.80;;;;;;5093617;28;20447;-74
2021/06/26 08:00:55;;;;;;;8.00;6.53;;;19.00;71.80;;;;;;5077945;28;20036;-73
2021/06/26 08:03:21;;;;;;;7.63;6.82;;;19.00;71.80;;;;;;5077534;28;20056;-72
2021/06/26 08:05:48;;;;;;;6.75;6.05;;;19.10;71.80;;;;;;5077842;28;20044;-74
2021/06/26 08:08:14;;;;;;;6.43;5.65;;;19.10;71.80;;;;;;5077848;28;20071;-73
2021/06/26 08:10:41;;;;;;;7.63;6.10;;;19.10;71.90;;;;;;5077632;28;20048;-74
2021/06/26 08:13:08;;;;;;;7.30;6.38;;;19.10;71.90;;;;;;5093484;28;20128;-73
2021/06/26 08:15:38;;;;;;;6.40;5.80;;;19.10;72.00;;;;;;5077733;28;20044;-74
2021/06/26 08:18:05;;;;;;;6.97;6.18;;;19.10;72.10;;;;;;5077540;28;20040;-72
2021/06/26 08:20:31;;;;;;;7.60;6.60;;;19.10;72.20;;;;;;5077357;28;20060;-72
2021/06/26 08:22:58;;;;;;;7.45;6.35;;;19.10;72.20;;;;;;5076975;28;20401;-74
2021/06/26 08:25:24;;;;;;;7.18;5.97;;;19.10;72.30;;;;;;5077256;28;20075;-73
2021/06/26 08:27:51;;;;;;;7.00;6.30;;;19.10;72.50;;;;;;5077476;28;20064;-72
2021/06/26 08:30:18;;;;;;;6.70;6.00;;;19.10;72.60;;;;;;5077762;28;20033;-72
2021/06/26 08:32:44;;;;;;;8.00;6.07;;;19.10;72.70;;;;;;5077305;28;20475;-72
2021/06/26 08:35:11;;;;;;;7.20;6.47;;;19.10;72.80;;;;;;5078009;28;20482;-73
2021/06/26 08:37:39;;;;;;;6.05;5.45;;;19.20;73.00;;;;;;5077445;28;20332;-74
2021/06/26 08:40:06;;;;;;;6.85;6.15;;;19.10;73.00;;;;;;5077068;28;20396;-75
2021/06/26 08:42:32;;;;;;;6.95;6.15;;;19.20;73.10;;;;;;5076724;28;20051;-73
2021/06/26 08:44:59;;;;;;;7.68;6.53;;;19.20;73.20;;;;;;5077290;28;20048;-74
2021/06/26 08:47:26;;;;;;;6.30;5.60;;;19.20;73.20;;;;;;5077453;28;20353;-73
2021/06/26 08:49:53;;;;;;;8.02;5.75;;;19.20;73.30;;;;;;5076966;28;20048;-75
2021/06/26 08:52:19;;;;;;;6.63;5.85;;;19.20;73.30;;;;;;5077114;28;20051;-72
2021/06/26 08:54:48;;;;;;;5.90;5.20;;;19.20;73.30;;;;;;5076776;28;20094;-73
2021/06/26 08:57:24;;;;;;;6.05;5.45;;;19.20;73.40;;;;;;5077105;28;20045;-73
2021/06/26 08:59:50;;;;;;;6.97;5.68;;;19.20;73.40;;;;;;5077153;28;20118;-74
2021/06/26 09:02:23;;;;;;;7.15;5.82;;;19.20;73.40;;;;;;5075894;28;20368;-76
2021/06/26 09:04:49;;;;;;;6.45;5.50;;;19.20;73.40;;;;;;5076749;28;20340;-73
2021/06/26 09:07:25;;;;;;;6.20;5.60;;;19.20;73.30;;;;;;5076830;28;20052;-73
2021/06/26 09:09:51;;;;;;;6.30;5.70;;;19.30;73.30;;;;;;5076502;28;20452;-73
2021/06/26 09:12:19;;;;;;;5.93;5.43;;;19.30;73.30;;;;;;5076903;28;20053;-74
2021/06/26 09:14:45;;;;;;;6.28;5.68;;;19.30;73.30;;;;;;5076288;28;20062;-73
2021/06/26 09:17:12;;;;;;;5.85;5.18;;;19.30;73.30;;;;;;5076403;28;20033;-73
2021/06/26 09:19:39;;;;;;;5.63;5.07;;;19.30;73.20;;;;;;5076511;28;20056;-72
2021/06/26 09:22:10;;;;;;;5.45;4.88;;;19.30;73.60;;;;;;5076634;28;20181;-75
2021/06/26 09:24:50;;;;;;;5.82;5.22;;;19.30;73.30;;;;;;5076160;28;20048;-72
2021/06/26 09:27:18;;;;;;;6.00;5.22;;;19.30;73.30;;;;;;5076154;28;20036;-73
2021/06/26 09:29:55;;;;;;;6.07;5.10;;;19.30;73.30;;;;;;5076206;28;20120;-74
2021/06/26 09:32:26;;;;;;;5.22;4.72;;;19.40;73.30;;;;;;5076329;28;20063;-74
2021/06/26 09:34:54;;;;;;;5.90;5.20;;;19.40;73.30;;;;;;5076379;28;20052;-74
2021/06/26 09:37:33;;;;;;;5.13;4.60;;;19.30;73.20;;;;;;5076161;28;20056;-73
2021/06/26 09:40:00;;;;;;;6.57;4.97;;;19.40;73.30;;;;;;5076013;28;20044;-75
2021/06/26 09:42:28;;;;;;;5.05;4.55;;;19.40;73.30;;;;;;5075386;28;20485;-75
2021/06/26 09:45:02;;;;;;;4.95;4.45;;;19.40;73.30;;;;;;5075616;28;20049;-73
2021/06/26 09:47:33;;;;;;;4.70;4.30;;;19.40;73.20;;;;;;5075711;28;20067;-74
2021/06/26 09:50:24;;;;;;;5.78;5.18;;;19.40;73.20;;;;;;5075680;28;20351;-73
2021/06/26 09:52:52;;;;;;;5.20;4.53;;;19.40;73.30;;;;;;5075957;28;20051;-74
2021/06/26 09:55:29;;;;;;;6.30;4.60;;;19.40;73.20;;;;;;5075601;28;20083;-76
2021/06/26 09:57:57;;;;;;;5.20;4.70;;;19.40;73.20;;;;;;5075568;28;20041;-74
2021/06/26 10:00:25;;;;;;;4.80;4.30;;;19.40;73.20;;;;;;5076155;28;20048;-74
2021/06/26 10:02:51;;;;;;;4.82;4.32;;;19.40;73.20;;;;;;5091002;28;20087;-74
2021/06/26 10:05:18;;;;;;;5.30;4.68;;;19.40;73.10;;;;;;5075194;28;20044;-75
2021/06/26 10:07:47;;;;;;;5.53;4.80;;;19.40;73.00;;;;;;5075367;28;20092;-72
2021/06/26 10:10:15;;;;;;;4.85;4.43;;;19.40;73.00;;;;;;5074406;28;20059;-73
2021/06/26 10:12:41;;;;;;;5.15;4.65;;;19.50;73.10;;;;;;5074312;28;20040;-74
2021/06/26 10:15:10;;;;;;;5.18;4.68;;;19.50;73.00;;;;;;5075579;28;20045;-74
2021/06/26 10:17:36;;;;;;;4.60;4.10;;;19.50;73.00;;;;;;5075627;28;20044;-74
2021/06/26 10:20:05;;;;;;;4.78;4.15;;;19.40;73.00;;;;;;5076023;28;20044;-74
2021/06/26 10:22:38;;;;;;;4.80;4.32;;;19.40;72.90;;;;;;5075694;28;20416;-73
2021/06/26 10:25:05;;;;;;;4.10;3.70;;;19.50;73.00;;;;;;5075703;28;20109;-75
2021/06/26 10:27:31;;;;;;;5.05;4.25;;;19.50;72.90;;;;;;5075420;28;20056;-73
2021/06/26 10:30:10;;;;;;;4.80;4.40;;;19.50;72.90;;;;;;5075448;28;20115;-74
2021/06/26 10:32:36;;;;;;;5.43;4.90;;;19.50;72.90;;;;;;5074537;28;20048;-73
2021/06/26 10:35:12;;;;;;;4.70;4.30;;;19.50;72.80;;;;;;5074755;28;20189;-75
2021/06/26 10:37:38;;;;;;;4.38;3.97;;;19.50;72.80;;;;;;5075531;28;20105;-74
2021/06/26 10:40:07;;;;;;;4.43;4.03;;;19.50;72.80;;;;;;5075742;28;20044;-73
2021/06/26 10:42:36;;;;;;;4.65;4.25;;;19.50;72.80;;;;;;5074015;28;20033;-76
2021/06/26 10:45:04;;;;;;;4.75;4.30;;;19.50;72.80;;;;;;5075220;28;20036;-74
2021/06/26 10:47:39;;;;;;;5.28;4.18;;;19.50;72.80;;;;;;5090673;28;20044;-74
2021/06/26 10:50:19;;;;;;;4.80;4.30;;;19.60;72.90;;;;;;5074067;28;20040;-72
2021/06/26 10:52:50;;;;;;;4.50;4.10;;;19.60;72.90;;;;;;5075062;28;20040;-73
2021/06/26 10:55:30;;;;;;;4.60;4.20;;;19.60;72.90;;;;;;5075006;28;20048;-74
2021/06/26 10:57:56;;;;;;;4.30;3.90;;;19.50;72.80;;;;;;5075282;28;20044;-73
2021/06/26 11:00:40;;;;;;;4.00;3.60;;;19.60;72.80;;;;;;5074780;28;20056;-76
2021/06/26 11:03:18;;;;;;;4.32;3.92;;;19.60;72.80;;;;;;5073452;28;20447;-74
2021/06/26 11:05:44;;;;;;;4.45;3.67;;;19.60;72.80;;;;;;5075528;28;20052;-74
2021/06/26 11:08:17;;;;;;;3.72;3.42;;;19.50;72.70;;;;;;5074765;28;20340;-73
2021/06/26 11:10:52;;;;;;;3.88;3.55;;;19.60;72.80;;;;;;5074689;28;20059;-73
2021/06/26 11:13:23;;;;;;;4.25;3.85;;;19.60;72.80;;;;;;5074682;28;20049;-74
2021/06/26 11:15:49;;;;;;;4.50;4.10;;;19.60;72.70;;;;;;5074745;28;20048;-75
2021/06/26 11:18:17;;;;;;;3.75;3.38;;;19.60;72.70;;;;;;5074701;28;20044;-73
2021/06/26 11:20:43;;;;;;;4.60;4.20;;;19.60;72.60;;;;;;5074784;28;20049;-73
2021/06/26 11:23:13;;;;;;;4.00;3.60;;;19.60;72.60;;;;;;5075025;28;20072;-73
2021/06/26 11:25:39;;;;;;;3.97;3.58;;;19.60;72.60;;;;;;5075752;28;20049;-73
2021/06/26 11:28:09;;;;;;;4.68;4.28;;;19.60;72.60;;;;;;5078228;28;20052;-74
2021/06/26 11:30:37;;;;;;;4.03;3.63;;;19.60;72.60;;;;;;5078975;28;20381;-75
2021/06/26 11:33:03;;;;;;;3.88;3.53;;;19.60;72.50;;;;;;5079119;28;20059;-74
2021/06/26 11:35:35;;;;;;;4.43;4.03;;;19.60;72.60;;;;;;5079199;28;20074;-75
2021/06/26 11:38:02;;;;;;;4.10;3.72;;;19.60;72.50;;;;;;5078643;28;20053;-72
2021/06/26 11:40:29;;;;;;;4.13;3.58;;;19.60;72.60;;;;;;5094164;28;20044;-73
2021/06/26 11:42:59;;;;;;;4.22;3.83;;;19.60;72.50;;;;;;5078475;28;20043;-74
2021/06/26 11:45:36;;;;;;;4.47;4.00;;;19.70;72.60;;;;;;5094080;28;20037;-72
2021/06/26 11:48:10;;;;;;;4.78;4.18;;;19.60;72.50;;;;;;5077959;28;20083;-72
2021/06/26 11:50:40;;;;;;;4.43;4.03;;;19.70;72.50;;;;;;5078012;28;20045;-73
2021/06/26 11:53:11;;;;;;;3.97;3.58;;;19.70;72.50;;;;;;5078074;28;20055;-74
2021/06/26 11:55:40;;;;;;;4.85;4.35;;;19.70;72.50;;;;;;5078039;28;20463;-74
2021/06/26 11:58:06;;;;;;;4.60;4.20;;;19.70;72.60;;;;;;5077926;28;20052;-74
2021/06/26 12:00:32;;;;;;;5.28;4.63;;;19.70;72.60;;;;;;5078136;28;20363;-74
2021/06/26 12:02:58;;;;;;;5.25;4.75;;;19.70;72.60;;;;;;5077726;28;20121;-73
2021/06/26 12:05:24;;;;;;;5.15;4.60;;;19.70;72.60;;;;;;5077859;28;20083;-73
2021/06/26 12:07:52;;;;;;;4.22;3.83;;;19.70;72.60;;;;;;5077745;28;20052;-74
2021/06/26 12:10:21;;;;;;;4.82;4.32;;;19.70;72.60;;;;;;5077828;28;20098;-74
2021/06/26 12:12:47;;;;;;;5.07;4.55;;;19.70;72.60;;;;;;5077170;28;20040;-75
2021/06/26 12:15:14;;;;;;;4.88;4.38;;;19.70;72.60;;;;;;5077432;28;20044;-72
2021/06/26 12:17:40;;;;;;;4.80;4.30;;;19.70;72.60;;;;;;5077835;28;20068;-75
2021/06/26 12:20:08;;;;;;;6.32;5.10;;;19.70;72.60;;;;;;5077511;28;20137;-73
2021/06/26 12:22:34;;;;;;;5.50;5.00;;;19.70;72.60;;;;;;5077703;28;20044;-73
2021/06/26 12:25:13;;;;;;;4.78;4.38;;;19.70;72.60;;;;;;5077659;28;20098;-73
2021/06/26 12:27:40;;;;;;;5.40;4.90;;;19.70;72.60;;;;;;5078159;28;20125;-74
2021/06/26 12:30:14;;;;;;;5.47;4.88;;;19.70;72.60;;;;;;5077316;28;20163;-73
2021/06/26 12:32:41;;;;;;;7.03;5.15;;;19.80;72.70;;;;;;5077278;28;20068;-71
2021/06/26 12:35:09;;;;;;;6.40;5.53;;;19.70;72.70;;;;;;5077310;28;20051;-72
2021/06/26 12:37:40;;;;;;;5.10;4.60;;;19.80;72.80;;;;;;5093057;28;20052;-73
2021/06/26 12:40:28;;;;;;;5.63;5.13;;;19.80;72.70;;;;;;5076985;28;20040;-74
2021/06/26 12:42:59;;;;;;;6.38;5.70;;;19.80;72.80;;;;;;5077153;28;20051;-71
2021/06/26 12:45:35;;;;;;;7.22;6.25;;;19.70;72.70;;;;;;5092585;28;20044;-74
2021/06/26 12:48:07;;;;;;;6.20;5.18;;;19.80;72.90;;;;;;5077291;28;20055;-73
2021/06/26 12:50:49;;;;;;;6.57;5.63;;;19.80;72.90;;;;;;5076842;28;20173;-74